sensor_id;sensor_type;location;lat;lon;timestamp;temperature;humidity
21834;DHT22;11079;51.092;3.458;2023-08-06T00:02:11;15.90;99.90
21834;DHT22;11079;51.092;3.458;2023-08-06T00:04:41;15.90;99.90
21834;DHT22;11079;51.092;3.458;2023-08-06T00:07:13;15.80;99.90
21834;DHT22;11079;51.092;3.458;2023-08-06T00:09:48;15.80;99.90
21834;DHT22;11079;51.092;3.458;2023-08-06T00:12:27;15.80;99.90
21834;DHT22;11079;51.092;3.458;2023-08-06T00:15:12;15.80;99.90
21834;DHT22;11079;51.092;3.458;2023-08-06T00:17:38;15.60;99.90
21834;DHT22;11079;51.092;3.458;2023-08-06T00:23:59;15.60;99.90
21834;DHT22;11079;51.092;3.458;2023-08-06T00:26:52;15.90;99.90
21834;DHT22;11079;51.092;3.458;2023-08-06T00:29:22;15.90;99.90
21834;DHT22;11079;51.092;3.458;2023-08-06T00:31:55;16.10;99.90
21834;DHT22;11079;51.092;3.458;2023-08-06T00:34:48;16.20;99.90
21834;DHT22;11079;51.092;3.458;2023-08-06T00:37:55;16.30;99.90
21834;DHT22;11079;51.092;3.458;2023-08-06T00:40:40;16.30;99.90
21834;DHT22;11079;51.092;3.458;2023-08-06T00:43:12;16.30;99.90
21834;DHT22;11079;51.092;3.458;2023-08-06T00:45:39;16.20;99.90
21834;DHT22;11079;51.092;3.458;2023-08-06T00:48:05;16.20;99.90
21834;DHT22;11079;51.092;3.458;2023-08-06T00:50:37;16.20;99.90
21834;DHT22;11079;51.092;3.458;2023-08-06T00:53:03;16.10;99.90
21834;DHT22;11079;51.092;3.458;2023-08-06T00:55:43;16.10;99.90
21834;DHT22;11079;51.092;3.458;2023-08-06T00:58:11;16.10;99.90
21834;DHT22;11079;51.092;3.458;2023-08-06T01:00:38;16.20;99.90
21834;DHT22;11079;51.092;3.458;2023-08-06T01:03:13;16.10;99.90
21834;DHT22;11079;51.092;3.458;2023-08-06T01:05:45;16.10;99.90
21834;DHT22;11079;51.092;3.458;2023-08-06T01:11:12;16.10;99.90
21834;DHT22;11079;51.092;3.458;2023-08-06T01:13:55;15.90;99.90
21834;DHT22;11079;51.092;3.458;2023-08-06T01:16:38;15.80;99.90
21834;DHT22;11079;51.092;3.458;2023-08-06T01:19:19;15.70;99.90
21834;DHT22;11079;51.092;3.458;2023-08-06T01:21:53;15.70;99.90
21834;DHT22;11079;51.092;3.458;2023-08-06T01:24:23;15.80;99.90
21834;DHT22;11079;51.092;3.458;2023-08-06T01:26:55;15.60;99.90
21834;DHT22;11079;51.092;3.458;2023-08-06T01:29:35;15.60;99.90
21834;DHT22;11079;51.092;3.458;2023-08-06T01:32:03;15.60;99.90
21834;DHT22;11079;51.092;3.458;2023-08-06T01:34:37;15.60;99.90
21834;DHT22;11079;51.092;3.458;2023-08-06T01:37:11;15.40;99.90
21834;DHT22;11079;51.092;3.458;2023-08-06T01:39:47;15.50;99.90
21834;DHT22;11079;51.092;3.458;2023-08-06T01:42:13;15.40;99.90
21834;DHT22;11079;51.092;3.458;2023-08-06T01:44:40;15.50;99.90
21834;DHT22;11079;51.092;3.458;2023-08-06T01:47:08;15.50;99.90
21834;DHT22;11079;51.092;3.458;2023-08-06T01:49:36;15.50;99.90
21834;DHT22;11079;51.092;3.458;2023-08-06T01:52:11;15.50;99.90
21834;DHT22;11079;51.092;3.458;2023-08-06T01:54:37;15.50;99.90
21834;DHT22;11079;51.092;3.458;2023-08-06T01:57:06;15.50;99.90
21834;DHT22;11079;51.092;3.458;2023-08-06T01:59:36;15.60;99.90
21834;DHT22;11079;51.092;3.458;2023-08-06T02:02:02;15.60;99.90
21834;DHT22;11079;51.092;3.458;2023-08-06T02:04:30;15.40;99.90
21834;DHT22;11079;51.092;3.458;2023-08-06T02:06:55;15.30;99.90
21834;DHT22;11079;51.092;3.458;2023-08-06T02:09:21;15.30;99.90
21834;DHT22;11079;51.092;3.458;2023-08-06T02:11:47;15.30;99.90
21834;DHT22;11079;51.092;3.458;2023-08-06T02:14:13;15.30;99.90
21834;DHT22;11079;51.092;3.458;2023-08-06T02:16:41;15.50;99.90
21834;DHT22;11079;51.092;3.458;2023-08-06T02:19:08;15.40;99.90
21834;DHT22;11079;51.092;3.458;2023-08-06T02:21:37;15.40;99.90
21834;DHT22;11079;51.092;3.458;2023-08-06T02:24:04;15.40;99.90
21834;DHT22;11079;51.092;3.458;2023-08-06T02:26:33;15.30;99.90
21834;DHT22;11079;51.092;3.458;2023-08-06T02:28:59;15.30;99.90
21834;DHT22;11079;51.092;3.458;2023-08-06T02:31:26;15.30;99.90
21834;DHT22;11079;51.092;3.458;2023-08-06T02:33:53;15.20;99.90
21834;DHT22;11079;51.092;3.458;2023-08-06T02:36:38;15.20;99.90
21834;DHT22;11079;51.092;3.458;2023-08-06T02:39:04;15.20;99.90
21834;DHT22;11079;51.092;3.458;2023-08-06T02:41:31;15.30;99.90
21834;DHT22;11079;51.092;3.458;2023-08-06T02:44:04;15.30;99.90
21834;DHT22;11079;51.092;3.458;2023-08-06T02:46:30;15.30;99.90
21834;DHT22;11079;51.092;3.458;2023-08-06T02:48:58;15.30;99.90
21834;DHT22;11079;51.092;3.458;2023-08-06T02:51:27;15.30;99.90
21834;DHT22;11079;51.092;3.458;2023-08-06T02:53:52;15.40;99.90
21834;DHT22;11079;51.092;3.458;2023-08-06T02:56:18;15.50;99.90
21834;DHT22;11079;51.092;3.458;2023-08-06T02:58:44;15.70;99.90
21834;DHT22;11079;51.092;3.458;2023-08-06T03:01:10;15.70;99.90
21834;DHT22;11079;51.092;3.458;2023-08-06T03:03:35;15.60;99.90
21834;DHT22;11079;51.092;3.458;2023-08-06T03:06:02;15.50;99.90
21834;DHT22;11079;51.092;3.458;2023-08-06T03:08:28;15.60;99.90
21834;DHT22;11079;51.092;3.458;2023-08-06T03:10:56;15.60;99.90
21834;DHT22;11079;51.092;3.458;2023-08-06T03:13:24;15.50;99.90
21834;DHT22;11079;51.092;3.458;2023-08-06T03:15:59;15.50;99.90
21834;DHT22;11079;51.092;3.458;2023-08-06T03:18:27;15.50;99.90
21834;DHT22;11079;51.092;3.458;2023-08-06T03:20:53;15.40;99.90
21834;DHT22;11079;51.092;3.458;2023-08-06T03:23:21;15.30;99.90
21834;DHT22;11079;51.092;3.458;2023-08-06T03:25:49;15.30;99.90
21834;DHT22;11079;51.092;3.458;2023-08-06T03:28:15;15.30;99.90
21834;DHT22;11079;51.092;3.458;2023-08-06T03:30:45;15.20;99.90
21834;DHT22;11079;51.092;3.458;2023-08-06T03:33:17;15.10;99.90
21834;DHT22;11079;51.092;3.458;2023-08-06T03:36:22;15.20;99.90
21834;DHT22;11079;51.092;3.458;2023-08-06T03:38:47;15.20;99.90
21834;DHT22;11079;51.092;3.458;2023-08-06T03:41:15;15.20;99.90
21834;DHT22;11079;51.092;3.458;2023-08-06T03:43:48;15.10;99.90
21834;DHT22;11079;51.092;3.458;2023-08-06T03:46:16;15.00;99.90
21834;DHT22;11079;51.092;3.458;2023-08-06T03:48:41;15.00;99.90
21834;DHT22;11079;51.092;3.458;2023-08-06T03:51:08;15.00;99.90
21834;DHT22;11079;51.092;3.458;2023-08-06T03:53:35;14.90;99.90
21834;DHT22;11079;51.092;3.458;2023-08-06T03:56:01;14.90;99.90
21834;DHT22;11079;51.092;3.458;2023-08-06T03:58:27;14.80;99.90
21834;DHT22;11079;51.092;3.458;2023-08-06T04:01:00;14.90;99.90
21834;DHT22;11079;51.092;3.458;2023-08-06T04:03:27;14.80;99.90
21834;DHT22;11079;51.092;3.458;2023-08-06T04:05:58;14.80;99.90
21834;DHT22;11079;51.092;3.458;2023-08-06T04:08:30;14.80;99.90
21834;DHT22;11079;51.092;3.458;2023-08-06T04:10:58;14.80;99.90
21834;DHT22;11079;51.092;3.458;2023-08-06T04:13:23;14.80;99.90
21834;DHT22;11079;51.092;3.458;2023-08-06T04:15:50;14.80;99.90
21834;DHT22;11079;51.092;3.458;2023-08-06T04:18:17;14.80;99.90
21834;DHT22;11079;51.092;3.458;2023-08-06T04:20:46;14.80;99.90
21834;DHT22;11079;51.092;3.458;2023-08-06T04:23:14;14.80;99.90
21834;DHT22;11079;51.092;3.458;2023-08-06T04:25:40;14.70;99.90
21834;DHT22;11079;51.092;3.458;2023-08-06T04:28:07;14.70;99.90
21834;DHT22;11079;51.092;3.458;2023-08-06T04:30:37;14.70;99.90
21834;DHT22;11079;51.092;3.458;2023-08-06T04:33:07;14.80;99.90
21834;DHT22;11079;51.092;3.458;2023-08-06T04:35:33;14.90;99.90
21834;DHT22;11079;51.092;3.458;2023-08-06T04:38:17;14.90;99.90
21834;DHT22;11079;51.092;3.458;2023-08-06T04:40:51;14.80;99.90
21834;DHT22;11079;51.092;3.458;2023-08-06T04:43:18;14.80;99.90
21834;DHT22;11079;51.092;3.458;2023-08-06T04:45:55;14.80;99.90
21834;DHT22;11079;51.092;3.458;2023-08-06T04:48:22;14.80;99.90
21834;DHT22;11079;51.092;3.458;2023-08-06T04:50:50;14.80;99.90
21834;DHT22;11079;51.092;3.458;2023-08-06T04:53:16;14.80;99.90
21834;DHT22;11079;51.092;3.458;2023-08-06T04:55:52;14.60;99.90
21834;DHT22;11079;51.092;3.458;2023-08-06T04:58:18;14.70;99.90
21834;DHT22;11079;51.092;3.458;2023-08-06T05:00:48;14.70;99.90
21834;DHT22;11079;51.092;3.458;2023-08-06T05:03:15;14.80;99.90
21834;DHT22;11079;51.092;3.458;2023-08-06T05:05:43;14.80;99.90
21834;DHT22;11079;51.092;3.458;2023-08-06T05:08:14;14.70;99.90
21834;DHT22;11079;51.092;3.458;2023-08-06T05:10:44;14.80;99.90
21834;DHT22;11079;51.092;3.458;2023-08-06T05:13:13;14.80;99.90
21834;DHT22;11079;51.092;3.458;2023-08-06T05:15:41;15.00;99.90
21834;DHT22;11079;51.092;3.458;2023-08-06T05:18:09;15.00;99.90
21834;DHT22;11079;51.092;3.458;2023-08-06T05:20:42;14.90;99.90
21834;DHT22;11079;51.092;3.458;2023-08-06T05:23:09;14.90;99.90
21834;DHT22;11079;51.092;3.458;2023-08-06T05:25:35;14.80;99.90
21834;DHT22;11079;51.092;3.458;2023-08-06T05:28:03;14.70;99.90
21834;DHT22;11079;51.092;3.458;2023-08-06T05:30:43;14.60;99.90
21834;DHT22;11079;51.092;3.458;2023-08-06T05:33:14;14.40;99.90
21834;DHT22;11079;51.092;3.458;2023-08-06T05:35:41;14.30;99.90
21834;DHT22;11079;51.092;3.458;2023-08-06T05:38:08;14.30;99.90
21834;DHT22;11079;51.092;3.458;2023-08-06T05:40:35;14.40;99.90
21834;DHT22;11079;51.092;3.458;2023-08-06T05:43:20;14.40;99.90
21834;DHT22;11079;51.092;3.458;2023-08-06T05:45:49;14.40;99.90
21834;DHT22;11079;51.092;3.458;2023-08-06T05:48:16;14.40;99.90
21834;DHT22;11079;51.092;3.458;2023-08-06T05:50:48;14.50;99.90
21834;DHT22;11079;51.092;3.458;2023-08-06T05:53:21;14.60;99.90
21834;DHT22;11079;51.092;3.458;2023-08-06T05:55:47;14.70;99.90
21834;DHT22;11079;51.092;3.458;2023-08-06T05:58:17;14.70;99.90
21834;DHT22;11079;51.092;3.458;2023-08-06T06:00:56;14.70;99.90
21834;DHT22;11079;51.092;3.458;2023-08-06T06:03:38;14.70;99.90
21834;DHT22;11079;51.092;3.458;2023-08-06T06:06:09;14.70;99.90
21834;DHT22;11079;51.092;3.458;2023-08-06T06:09:01;14.70;99.90
21834;DHT22;11079;51.092;3.458;2023-08-06T06:11:29;14.60;99.90
21834;DHT22;11079;51.092;3.458;2023-08-06T06:13:55;14.70;99.90
21834;DHT22;11079;51.092;3.458;2023-08-06T06:16:22;14.60;99.90
21834;DHT22;11079;51.092;3.458;2023-08-06T06:18:48;14.70;99.90
21834;DHT22;11079;51.092;3.458;2023-08-06T06:21:20;14.60;99.90
21834;DHT22;11079;51.092;3.458;2023-08-06T06:23:51;14.70;99.90
21834;DHT22;11079;51.092;3.458;2023-08-06T06:26:18;14.80;99.90
21834;DHT22;11079;51.092;3.458;2023-08-06T06:28:46;14.80;99.90
21834;DHT22;11079;51.092;3.458;2023-08-06T06:31:23;14.80;99.90
21834;DHT22;11079;51.092;3.458;2023-08-06T06:33:53;14.90;99.90
21834;DHT22;11079;51.092;3.458;2023-08-06T06:36:20;14.90;99.90
21834;DHT22;11079;51.092;3.458;2023-08-06T06:38:46;14.90;99.90
21834;DHT22;11079;51.092;3.458;2023-08-06T06:41:14;15.00;99.90
21834;DHT22;11079;51.092;3.458;2023-08-06T06:43:41;15.10;99.90
21834;DHT22;11079;51.092;3.458;2023-08-06T06:46:11;15.20;99.90
21834;DHT22;11079;51.092;3.458;2023-08-06T06:48:37;15.20;99.90
21834;DHT22;11079;51.092;3.458;2023-08-06T06:51:04;15.10;99.90
21834;DHT22;11079;51.092;3.458;2023-08-06T06:53:31;15.10;99.90
21834;DHT22;11079;51.092;3.458;2023-08-06T06:56:09;15.20;99.90
21834;DHT22;11079;51.092;3.458;2023-08-06T06:58:36;15.20;99.90
21834;DHT22;11079;51.092;3.458;2023-08-06T07:01:05;15.30;99.90
21834;DHT22;11079;51.092;3.458;2023-08-06T07:03:36;15.30;99.90
21834;DHT22;11079;51.092;3.458;2023-08-06T07:06:02;15.40;99.90
21834;DHT22;11079;51.092;3.458;2023-08-06T07:08:32;15.50;99.90
21834;DHT22;11079;51.092;3.458;2023-08-06T07:11:03;15.50;99.90
21834;DHT22;11079;51.092;3.458;2023-08-06T07:13:32;15.40;99.90
21834;DHT22;11079;51.092;3.458;2023-08-06T07:15:59;15.40;99.90
21834;DHT22;11079;51.092;3.458;2023-08-06T07:18:25;15.40;99.90
21834;DHT22;11079;51.092;3.458;2023-08-06T07:20:55;15.40;99.90
21834;DHT22;11079;51.092;3.458;2023-08-06T07:23:22;15.30;99.90
21834;DHT22;11079;51.092;3.458;2023-08-06T07:25:49;15.20;99.90
21834;DHT22;11079;51.092;3.458;2023-08-06T07:28:17;15.20;99.90
21834;DHT22;11079;51.092;3.458;2023-08-06T07:30:45;15.50;99.90
21834;DHT22;11079;51.092;3.458;2023-08-06T07:33:15;15.60;99.90
21834;DHT22;11079;51.092;3.458;2023-08-06T07:35:41;15.60;99.90
21834;DHT22;11079;51.092;3.458;2023-08-06T07:38:08;15.70;99.90
21834;DHT22;11079;51.092;3.458;2023-08-06T07:40:42;15.80;99.90
21834;DHT22;11079;51.092;3.458;2023-08-06T07:43:09;15.80;99.90
21834;DHT22;11079;51.092;3.458;2023-08-06T07:45:35;15.80;99.90
21834;DHT22;11079;51.092;3.458;2023-08-06T07:48:02;15.70;99.90
21834;DHT22;11079;51.092;3.458;2023-08-06T07:50:32;15.70;99.90
21834;DHT22;11079;51.092;3.458;2023-08-06T07:53:01;15.60;99.90
21834;DHT22;11079;51.092;3.458;2023-08-06T07:55:28;15.60;99.90
21834;DHT22;11079;51.092;3.458;2023-08-06T07:57:54;15.50;99.90
21834;DHT22;11079;51.092;3.458;2023-08-06T08:00:20;15.50;99.90
21834;DHT22;11079;51.092;3.458;2023-08-06T08:02:47;15.40;99.90
21834;DHT22;11079;51.092;3.458;2023-08-06T08:05:16;15.30;99.90
21834;DHT22;11079;51.092;3.458;2023-08-06T08:07:42;15.40;99.90
21834;DHT22;11079;51.092;3.458;2023-08-06T08:10:11;15.50;99.90
21834;DHT22;11079;51.092;3.458;2023-08-06T08:12:38;15.60;99.90
21834;DHT22;11079;51.092;3.458;2023-08-06T08:15:07;15.70;99.90
21834;DHT22;11079;51.092;3.458;2023-08-06T08:17:33;15.60;99.90
21834;DHT22;11079;51.092;3.458;2023-08-06T08:20:00;15.60;99.90
21834;DHT22;11079;51.092;3.458;2023-08-06T08:22:26;15.40;99.90
21834;DHT22;11079;51.092;3.458;2023-08-06T08:24:51;15.50;99.90
21834;DHT22;11079;51.092;3.458;2023-08-06T08:27:42;15.50;99.90
21834;DHT22;11079;51.092;3.458;2023-08-06T08:30:10;15.50;99.90
21834;DHT22;11079;51.092;3.458;2023-08-06T08:32:35;15.50;99.90
21834;DHT22;11079;51.092;3.458;2023-08-06T08:35:06;15.60;99.90
21834;DHT22;11079;51.092;3.458;2023-08-06T08:37:32;15.70;99.90
21834;DHT22;11079;51.092;3.458;2023-08-06T08:39:58;15.70;99.90
21834;DHT22;11079;51.092;3.458;2023-08-06T08:42:26;15.70;99.90
21834;DHT22;11079;51.092;3.458;2023-08-06T08:44:53;15.80;99.90
21834;DHT22;11079;51.092;3.458;2023-08-06T08:47:24;15.80;99.90
21834;DHT22;11079;51.092;3.458;2023-08-06T08:49:53;15.80;99.90
21834;DHT22;11079;51.092;3.458;2023-08-06T08:52:22;15.80;99.90
21834;DHT22;11079;51.092;3.458;2023-08-06T08:54:51;15.60;99.90
21834;DHT22;11079;51.092;3.458;2023-08-06T08:57:21;15.40;99.90
21834;DHT22;11079;51.092;3.458;2023-08-06T08:59:51;15.20;99.90
21834;DHT22;11079;51.092;3.458;2023-08-06T09:02:18;15.10;99.90
21834;DHT22;11079;51.092;3.458;2023-08-06T09:04:44;15.00;99.90
21834;DHT22;11079;51.092;3.458;2023-08-06T09:07:13;15.00;99.90
21834;DHT22;11079;51.092;3.458;2023-08-06T09:09:46;15.00;99.90
21834;DHT22;11079;51.092;3.458;2023-08-06T09:12:14;15.00;99.90
21834;DHT22;11079;51.092;3.458;2023-08-06T09:14:41;15.10;99.90
21834;DHT22;11079;51.092;3.458;2023-08-06T09:17:08;15.10;99.90
21834;DHT22;11079;51.092;3.458;2023-08-06T09:19:41;15.00;99.90
21834;DHT22;11079;51.092;3.458;2023-08-06T09:22:13;15.00;99.90
21834;DHT22;11079;51.092;3.458;2023-08-06T09:24:45;15.00;99.90
21834;DHT22;11079;51.092;3.458;2023-08-06T09:27:13;15.00;99.90
21834;DHT22;11079;51.092;3.458;2023-08-06T09:29:45;15.10;99.90
21834;DHT22;11079;51.092;3.458;2023-08-06T09:32:12;15.10;99.90
21834;DHT22;11079;51.092;3.458;2023-08-06T09:34:46;15.00;99.90
21834;DHT22;11079;51.092;3.458;2023-08-06T09:37:12;14.90;99.90
21834;DHT22;11079;51.092;3.458;2023-08-06T09:39:39;14.90;99.90
21834;DHT22;11079;51.092;3.458;2023-08-06T09:42:14;15.20;99.90
21834;DHT22;11079;51.092;3.458;2023-08-06T09:44:41;15.50;99.90
21834;DHT22;11079;51.092;3.458;2023-08-06T09:47:08;15.90;99.90
21834;DHT22;11079;51.092;3.458;2023-08-06T09:52:00;16.60;99.90
21834;DHT22;11079;51.092;3.458;2023-08-06T09:54:29;16.80;99.90
21834;DHT22;11079;51.092;3.458;2023-08-06T09:56:56;16.60;99.90
21834;DHT22;11079;51.092;3.458;2023-08-06T09:59:26;16.40;99.90
21834;DHT22;11079;51.092;3.458;2023-08-06T10:01:54;16.30;99.90
21834;DHT22;11079;51.092;3.458;2023-08-06T10:04:23;16.70;99.90
21834;DHT22;11079;51.092;3.458;2023-08-06T10:06:50;16.90;99.90
21834;DHT22;11079;51.092;3.458;2023-08-06T10:09:16;16.70;99.90
21834;DHT22;11079;51.092;3.458;2023-08-06T10:11:51;16.80;99.90
21834;DHT22;11079;51.092;3.458;2023-08-06T10:14:35;16.90;99.90
21834;DHT22;11079;51.092;3.458;2023-08-06T10:17:03;17.10;99.90
21834;DHT22;11079;51.092;3.458;2023-08-06T10:19:30;17.30;99.90
21834;DHT22;11079;51.092;3.458;2023-08-06T10:22:11;17.60;99.90
21834;DHT22;11079;51.092;3.458;2023-08-06T10:25:06;17.40;99.90
21834;DHT22;11079;51.092;3.458;2023-08-06T10:27:36;17.40;99.90
21834;DHT22;11079;51.092;3.458;2023-08-06T10:30:29;17.60;99.90
21834;DHT22;11079;51.092;3.458;2023-08-06T10:33:03;17.60;99.90
21834;DHT22;11079;51.092;3.458;2023-08-06T10:35:30;17.30;99.90
21834;DHT22;11079;51.092;3.458;2023-08-06T10:38:19;17.40;99.90
21834;DHT22;11079;51.092;3.458;2023-08-06T10:45:52;17.40;99.90
21834;DHT22;11079;51.092;3.458;2023-08-06T10:48:37;17.40;99.90
21834;DHT22;11079;51.092;3.458;2023-08-06T10:51:13;17.60;99.90
21834;DHT22;11079;51.092;3.458;2023-08-06T10:53:50;17.50;99.90
21834;DHT22;11079;51.092;3.458;2023-08-06T10:56:21;17.20;99.90
21834;DHT22;11079;51.092;3.458;2023-08-06T10:58:53;16.90;99.90
21834;DHT22;11079;51.092;3.458;2023-08-06T11:01:22;16.80;99.90
21834;DHT22;11079;51.092;3.458;2023-08-06T11:03:48;16.40;99.90
21834;DHT22;11079;51.092;3.458;2023-08-06T11:06:20;16.10;99.90
21834;DHT22;11079;51.092;3.458;2023-08-06T11:08:48;16.00;99.90
21834;DHT22;11079;51.092;3.458;2023-08-06T11:11:17;16.20;99.90
21834;DHT22;11079;51.092;3.458;2023-08-06T11:13:51;16.00;99.90
21834;DHT22;11079;51.092;3.458;2023-08-06T11:16:24;15.90;99.90
21834;DHT22;11079;51.092;3.458;2023-08-06T11:18:55;16.00;99.90
21834;DHT22;11079;51.092;3.458;2023-08-06T11:21:23;16.10;99.90
21834;DHT22;11079;51.092;3.458;2023-08-06T11:23:53;16.10;99.90
21834;DHT22;11079;51.092;3.458;2023-08-06T11:26:24;16.30;99.90
21834;DHT22;11079;51.092;3.458;2023-08-06T11:28:57;16.50;99.90
21834;DHT22;11079;51.092;3.458;2023-08-06T11:31:26;16.80;99.90
21834;DHT22;11079;51.092;3.458;2023-08-06T11:33:55;17.00;99.90
21834;DHT22;11079;51.092;3.458;2023-08-06T11:36:31;17.00;99.90
21834;DHT22;11079;51.092;3.458;2023-08-06T11:39:03;17.10;99.90
21834;DHT22;11079;51.092;3.458;2023-08-06T11:41:31;16.80;99.90
21834;DHT22;11079;51.092;3.458;2023-08-06T11:43:59;16.10;99.90
21834;DHT22;11079;51.092;3.458;2023-08-06T11:46:26;15.90;99.90
21834;DHT22;11079;51.092;3.458;2023-08-06T11:48:58;15.90;99.90
21834;DHT22;11079;51.092;3.458;2023-08-06T11:51:25;15.80;99.90
21834;DHT22;11079;51.092;3.458;2023-08-06T11:53:58;15.80;99.90
21834;DHT22;11079;51.092;3.458;2023-08-06T11:56:25;15.90;99.90
21834;DHT22;11079;51.092;3.458;2023-08-06T11:58:57;16.20;99.90
21834;DHT22;11079;51.092;3.458;2023-08-06T12:01:22;16.40;99.90
21834;DHT22;11079;51.092;3.458;2023-08-06T12:03:48;16.40;99.90
21834;DHT22;11079;51.092;3.458;2023-08-06T12:06:14;16.30;99.90
21834;DHT22;11079;51.092;3.458;2023-08-06T12:08:42;16.10;99.90
21834;DHT22;11079;51.092;3.458;2023-08-06T12:11:17;16.20;99.90
21834;DHT22;11079;51.092;3.458;2023-08-06T12:13:54;16.00;99.90
21834;DHT22;11079;51.092;3.458;2023-08-06T12:16:21;16.10;99.90
21834;DHT22;11079;51.092;3.458;2023-08-06T12:18:50;16.30;99.90
21834;DHT22;11079;51.092;3.458;2023-08-06T12:21:28;16.60;99.90
21834;DHT22;11079;51.092;3.458;2023-08-06T12:23:54;16.90;99.90
21834;DHT22;11079;51.092;3.458;2023-08-06T12:26:19;17.00;99.90
21834;DHT22;11079;51.092;3.458;2023-08-06T12:28:47;16.80;99.90
21834;DHT22;11079;51.092;3.458;2023-08-06T12:31:13;16.20;99.90
21834;DHT22;11079;51.092;3.458;2023-08-06T12:33:38;15.90;99.90
21834;DHT22;11079;51.092;3.458;2023-08-06T12:36:07;16.00;99.90
21834;DHT22;11079;51.092;3.458;2023-08-06T12:38:33;16.00;99.90
21834;DHT22;11079;51.092;3.458;2023-08-06T12:40:59;15.80;99.90
21834;DHT22;11079;51.092;3.458;2023-08-06T12:43:25;15.80;99.90
21834;DHT22;11079;51.092;3.458;2023-08-06T12:45:50;16.10;99.90
21834;DHT22;11079;51.092;3.458;2023-08-06T12:48:16;16.30;99.90
21834;DHT22;11079;51.092;3.458;2023-08-06T12:50:44;16.50;99.90
21834;DHT22;11079;51.092;3.458;2023-08-06T12:53:12;16.80;99.90
21834;DHT22;11079;51.092;3.458;2023-08-06T12:55:41;17.00;99.90
21834;DHT22;11079;51.092;3.458;2023-08-06T12:58:07;17.10;99.90
21834;DHT22;11079;51.092;3.458;2023-08-06T13:00:33;16.90;99.90
21834;DHT22;11079;51.092;3.458;2023-08-06T13:02:59;16.80;99.90
21834;DHT22;11079;51.092;3.458;2023-08-06T13:05:25;16.60;99.90
21834;DHT22;11079;51.092;3.458;2023-08-06T13:07:52;16.40;99.90
21834;DHT22;11079;51.092;3.458;2023-08-06T13:10:18;15.90;99.90
21834;DHT22;11079;51.092;3.458;2023-08-06T13:12:47;15.60;99.90
21834;DHT22;11079;51.092;3.458;2023-08-06T13:15:13;15.60;99.90
21834;DHT22;11079;51.092;3.458;2023-08-06T13:17:42;15.50;99.90
21834;DHT22;11079;51.092;3.458;2023-08-06T13:20:11;15.50;99.90
21834;DHT22;11079;51.092;3.458;2023-08-06T13:22:38;15.70;99.90
21834;DHT22;11079;51.092;3.458;2023-08-06T13:25:08;15.80;99.90
21834;DHT22;11079;51.092;3.458;2023-08-06T13:27:34;15.90;99.90
21834;DHT22;11079;51.092;3.458;2023-08-06T13:30:05;15.90;99.90
21834;DHT22;11079;51.092;3.458;2023-08-06T13:32:32;15.80;99.90
21834;DHT22;11079;51.092;3.458;2023-08-06T13:34:58;15.60;99.90
21834;DHT22;11079;51.092;3.458;2023-08-06T13:37:27;15.90;99.90
21834;DHT22;11079;51.092;3.458;2023-08-06T13:40:16;16.00;99.90
21834;DHT22;11079;51.092;3.458;2023-08-06T13:42:42;16.00;99.90
21834;DHT22;11079;51.092;3.458;2023-08-06T13:45:18;16.10;99.90
21834;DHT22;11079;51.092;3.458;2023-08-06T13:47:45;16.20;99.90
21834;DHT22;11079;51.092;3.458;2023-08-06T13:50:48;16.30;99.90
21834;DHT22;11079;51.092;3.458;2023-08-06T13:53:33;16.50;99.90
21834;DHT22;11079;51.092;3.458;2023-08-06T13:56:00;16.60;99.90
21834;DHT22;11079;51.092;3.458;2023-08-06T13:58:28;17.10;99.90
21834;DHT22;11079;51.092;3.458;2023-08-06T14:00:53;17.60;99.90
21834;DHT22;11079;51.092;3.458;2023-08-06T14:03:20;17.70;99.90
21834;DHT22;11079;51.092;3.458;2023-08-06T14:05:48;17.70;99.90
21834;DHT22;11079;51.092;3.458;2023-08-06T14:08:25;17.70;99.90
21834;DHT22;11079;51.092;3.458;2023-08-06T14:10:51;18.00;99.90
21834;DHT22;11079;51.092;3.458;2023-08-06T14:13:18;18.50;99.90
21834;DHT22;11079;51.092;3.458;2023-08-06T14:15:46;19.00;99.90
21834;DHT22;11079;51.092;3.458;2023-08-06T14:18:13;19.10;99.90
21834;DHT22;11079;51.092;3.458;2023-08-06T14:20:39;18.80;99.90
21834;DHT22;11079;51.092;3.458;2023-08-06T14:23:08;19.20;99.90
21834;DHT22;11079;51.092;3.458;2023-08-06T14:25:37;19.70;99.90
21834;DHT22;11079;51.092;3.458;2023-08-06T14:28:03;19.70;99.90
21834;DHT22;11079;51.092;3.458;2023-08-06T14:30:36;19.40;99.90
21834;DHT22;11079;51.092;3.458;2023-08-06T14:33:03;18.90;99.90
21834;DHT22;11079;51.092;3.458;2023-08-06T14:35:30;18.40;99.90
21834;DHT22;11079;51.092;3.458;2023-08-06T14:37:56;17.80;99.90
21834;DHT22;11079;51.092;3.458;2023-08-06T14:40:22;17.50;99.90
21834;DHT22;11079;51.092;3.458;2023-08-06T14:42:49;17.60;99.90
21834;DHT22;11079;51.092;3.458;2023-08-06T14:45:16;17.80;99.90
21834;DHT22;11079;51.092;3.458;2023-08-06T14:47:46;18.00;99.90
21834;DHT22;11079;51.092;3.458;2023-08-06T14:50:15;18.30;99.90
21834;DHT22;11079;51.092;3.458;2023-08-06T14:52:43;18.20;99.90
21834;DHT22;11079;51.092;3.458;2023-08-06T14:55:09;18.00;99.90
21834;DHT22;11079;51.092;3.458;2023-08-06T14:57:36;18.00;99.90
21834;DHT22;11079;51.092;3.458;2023-08-06T15:00:10;18.10;99.90
21834;DHT22;11079;51.092;3.458;2023-08-06T15:02:39;18.20;99.90
21834;DHT22;11079;51.092;3.458;2023-08-06T15:05:08;18.10;99.90
21834;DHT22;11079;51.092;3.458;2023-08-06T15:20:42;18.20;99.90
21834;DHT22;11079;51.092;3.458;2023-08-06T15:23:08;18.00;99.90
21834;DHT22;11079;51.092;3.458;2023-08-06T15:25:34;17.60;99.90
21834;DHT22;11079;51.092;3.458;2023-08-06T15:28:01;17.30;99.90
21834;DHT22;11079;51.092;3.458;2023-08-06T15:30:26;17.30;99.90
21834;DHT22;11079;51.092;3.458;2023-08-06T15:32:52;17.20;99.90
21834;DHT22;11079;51.092;3.458;2023-08-06T15:35:18;17.20;99.90
21834;DHT22;11079;51.092;3.458;2023-08-06T15:37:43;17.40;99.90
21834;DHT22;11079;51.092;3.458;2023-08-06T15:40:10;17.60;99.90
21834;DHT22;11079;51.092;3.458;2023-08-06T15:42:35;17.50;99.90
21834;DHT22;11079;51.092;3.458;2023-08-06T15:45:01;17.50;99.90
21834;DHT22;11079;51.092;3.458;2023-08-06T15:47:28;17.20;99.90
21834;DHT22;11079;51.092;3.458;2023-08-06T15:49:54;17.20;99.90
21834;DHT22;11079;51.092;3.458;2023-08-06T15:52:20;17.10;99.90
21834;DHT22;11079;51.092;3.458;2023-08-06T15:54:46;17.10;99.90
21834;DHT22;11079;51.092;3.458;2023-08-06T15:57:11;17.10;99.90
21834;DHT22;11079;51.092;3.458;2023-08-06T15:59:38;17.20;99.90
21834;DHT22;11079;51.092;3.458;2023-08-06T16:02:04;17.20;99.90
21834;DHT22;11079;51.092;3.458;2023-08-06T16:04:32;17.00;99.90
21834;DHT22;11079;51.092;3.458;2023-08-06T16:06:58;16.80;99.90
21834;DHT22;11079;51.092;3.458;2023-08-06T16:09:24;17.10;99.90
21834;DHT22;11079;51.092;3.458;2023-08-06T16:11:51;17.30;99.90
21834;DHT22;11079;51.092;3.458;2023-08-06T16:14:18;17.40;99.90